Time;durP1;ratioP1;P1;durP2;ratioP2;P2;SDS_P1;SDS_P2;PMS_P1;PMS_P2;Temp;Humidity;BMP_temperature;BMP_pressure;BME280_temperature;BME280_humidity;BME280_pressure;Samples;Min_cycle;Max_cycle;Signal;HPM_P1;HPM_P2
2023/09/13 00:01:13;;;;;;;18.13;16.33;;;21.10;99.90;;;;;;5067600;28;20378;-81
2023/09/13 00:03:39;;;;;;;18.70;17.00;;;21.10;99.90;;;;;;5063451;28;20027;-81
2023/09/13 00:06:05;;;;;;;17.73;16.02;;;21.10;99.90;;;;;;5067386;28;20024;-81
2023/09/13 00:08:30;;;;;;;18.00;16.13;;;21.20;99.90;;;;;;5066911;28;20022;-81
2023/09/13 00:11:03;;;;;;;16.80;15.20;;;21.20;99.90;;;;;;5067990;28;20101;-82
2023/09/13 00:13:29;;;;;;;14.98;13.73;;;21.20;99.90;;;;;;5066708;28;20024;-81
2023/09/13 00:15:55;;;;;;;19.95;17.95;;;21.20;99.90;;;;;;5055505;28;20039;-80
2023/09/13 00:18:20;;;;;;;20.23;18.23;;;21.20;99.90;;;;;;5046505;28;20028;-82
2023/09/13 00:20:46;;;;;;;19.00;17.10;;;21.20;99.90;;;;;;5048901;28;20021;-82
2023/09/13 00:23:11;;;;;;;17.45;15.63;;;21.20;99.90;;;;;;5046101;28;20505;-82
2023/09/13 00:25:37;;;;;;;18.85;16.77;;;21.10;99.90;;;;;;5047297;28;20025;-82
2023/09/13 00:28:03;;;;;;;16.65;15.05;;;21.10;99.90;;;;;;5047339;28;20116;-82
2023/09/13 00:30:29;;;;;;;18.92;16.98;;;21.10;99.90;;;;;;5048637;28;20032;-81
2023/09/13 00:32:54;;;;;;;17.42;15.73;;;21.10;99.90;;;;;;5048757;28;20497;-82
2023/09/13 00:35:20;;;;;;;17.27;15.35;;;21.10;99.90;;;;;;5048394;28;20033;-82
2023/09/13 00:37:45;;;;;;;17.13;14.38;;;21.10;99.90;;;;;;5049412;28;20025;-82
2023/09/13 00:40:11;;;;;;;18.10;16.17;;;21.00;99.90;;;;;;5047690;28;20021;-82
2023/09/13 00:42:36;;;;;;;17.80;16.20;;;21.10;99.90;;;;;;5049267;28;20071;-81
2023/09/13 00:45:02;;;;;;;17.65;15.82;;;21.00;99.90;;;;;;5048743;28;20029;-81
2023/09/13 00:47:28;;;;;;;16.55;14.88;;;21.10;99.90;;;;;;5049779;28;20035;-81
2023/09/13 00:49:54;;;;;;;15.70;14.25;;;21.10;99.90;;;;;;5052807;28;20087;-81
2023/09/13 00:52:21;;;;;;;16.70;15.10;;;21.00;99.90;;;;;;5052869;28;20029;-82
2023/09/13 00:54:47;;;;;;;18.10;16.40;;;21.10;99.90;;;;;;5053081;28;20390;-82
2023/09/13 00:57:12;;;;;;;15.82;14.27;;;21.10;99.90;;;;;;5052201;28;20036;-81
2023/09/13 00:59:38;;;;;;;18.35;15.70;;;21.00;99.90;;;;;;5051828;28;20032;-81
2023/09/13 01:02:04;;;;;;;18.65;16.95;;;21.00;99.90;;;;;;5053927;28;20020;-82
2023/09/13 01:04:32;;;;;;;17.35;15.65;;;21.10;99.90;;;;;;5053489;28;20030;-82
2023/09/13 01:06:58;;;;;;;18.00;16.40;;;21.00;99.90;;;;;;5054940;28;20021;-82
2023/09/13 01:09:24;;;;;;;19.58;17.58;;;21.00;99.90;;;;;;5051309;28;20451;-81
2023/09/13 01:11:50;;;;;;;17.92;16.13;;;21.00;99.90;;;;;;5054746;28;20025;-82
2023/09/13 01:14:16;;;;;;;18.85;16.95;;;21.00;99.90;;;;;;5051564;28;20112;-81
2023/09/13 01:17:04;;;;;;;19.83;18.02;;;20.90;99.90;;;;;;5072501;28;20182;-82
2023/09/13 01:19:44;;;;;;;19.58;17.67;;;21.00;99.90;;;;;;5070732;28;20450;-81
2023/09/13 01:22:34;;;;;;;22.15;19.73;;;20.90;99.90;;;;;;5064802;28;20107;-82
2023/09/13 01:25:18;;;;;;;20.27;18.17;;;20.90;99.90;;;;;;5069708;28;20020;-81
2023/09/13 01:28:10;;;;;;;19.65;17.55;;;20.80;99.90;;;;;;5069965;28;20075;-82
2023/09/13 01:30:37;;;;;;;18.35;16.45;;;20.80;99.90;;;;;;5069765;28;20039;-82
2023/09/13 01:33:03;;;;;;;22.67;20.50;;;20.90;99.90;;;;;;5066510;28;20127;-82
2023/09/13 01:35:28;;;;;;;23.73;21.25;;;20.90;99.90;;;;;;5070635;28;20446;-82
2023/09/13 01:37:54;;;;;;;21.80;19.70;;;21.00;99.90;;;;;;5069206;28;20446;-82
2023/09/13 01:40:22;;;;;;;23.27;20.90;;;21.00;99.90;;;;;;5069321;28;20240;-83
2023/09/13 01:42:49;;;;;;;21.60;19.35;;;21.00;99.90;;;;;;5068075;28;20485;-82
2023/09/13 01:45:15;;;;;;;22.67;20.48;;;21.00;99.90;;;;;;5069040;28;20036;-81
2023/09/13 01:47:43;;;;;;;20.48;18.23;;;21.00;99.90;;;;;;5068842;28;20024;-82
2023/09/13 01:50:10;;;;;;;21.40;19.35;;;21.00;99.90;;;;;;5068300;28;20107;-82
2023/09/13 01:52:36;;;;;;;21.33;19.13;;;21.10;99.90;;;;;;5069414;28;20025;-83
2023/09/13 01:55:06;;;;;;;28.80;22.52;;;21.10;99.90;;;;;;5067665;28;20031;-82
2023/09/13 01:57:33;;;;;;;22.63;20.35;;;21.10;99.90;;;;;;5042774;28;20056;-83
2023/09/13 01:59:58;;;;;;;20.63;18.58;;;21.10;99.90;;;;;;5062444;28;20021;-82
2023/09/13 02:02:24;;;;;;;22.67;20.38;;;21.10;99.90;;;;;;5053882;28;20036;-82
2023/09/13 02:04:49;;;;;;;26.15;23.02;;;21.10;99.90;;;;;;5062578;28;20028;-82
2023/09/13 02:07:16;;;;;;;22.08;19.90;;;21.20;99.90;;;;;;5068595;28;20028;-82
2023/09/13 02:09:42;;;;;;;23.90;21.60;;;21.20;99.90;;;;;;5067543;28;20078;-82
2023/09/13 02:12:12;;;;;;;22.05;18.48;;;21.20;99.90;;;;;;5068463;28;20019;-84
2023/09/13 02:14:40;;;;;;;22.63;20.42;;;21.10;99.90;;;;;;5067243;28;20032;-84
2023/09/13 02:17:09;;;;;;;16.35;14.75;;;20.80;99.90;;;;;;5058338;28;20557;-83
2023/09/13 02:19:37;;;;;;;15.32;13.82;;;20.70;99.90;;;;;;5063906;28;20497;-84
2023/09/13 02:22:03;;;;;;;14.38;12.95;;;20.60;99.90;;;;;;5050366;28;20021;-84
2023/09/13 02:24:29;;;;;;;15.30;13.65;;;20.60;99.90;;;;;;5065477;28;20358;-84
2023/09/13 02:26:58;;;;;;;13.45;12.18;;;20.60;99.90;;;;;;5070279;28;20362;-84
2023/09/13 02:29:25;;;;;;;12.80;11.60;;;20.60;99.90;;;;;;5069066;28;20021;-82
2023/09/13 02:31:51;;;;;;;12.93;11.68;;;20.60;99.90;;;;;;5062025;28;20029;-84
2023/09/13 02:34:17;;;;;;;16.02;14.45;;;20.60;99.90;;;;;;5062723;28;20100;-83
2023/09/13 02:36:42;;;;;;;20.05;17.75;;;20.60;99.90;;;;;;5050102;28;20474;-84
2023/09/13 02:39:31;;;;;;;23.52;19.33;;;20.60;99.90;;;;;;5049447;28;20359;-83
2023/09/13 02:41:57;;;;;;;18.70;16.55;;;20.60;99.90;;;;;;5043737;28;20432;-83
2023/09/13 02:44:22;;;;;;;18.90;16.95;;;20.60;99.90;;;;;;5068161;28;20031;-84
2023/09/13 02:46:48;;;;;;;18.85;16.83;;;20.50;99.90;;;;;;5062667;28;20386;-83
2023/09/13 02:49:13;;;;;;;19.20;16.88;;;20.50;99.90;;;;;;5068814;28;20021;-83
2023/09/13 02:51:39;;;;;;;23.33;20.52;;;20.50;99.90;;;;;;5069782;28;20024;-85
2023/09/13 02:54:04;;;;;;;24.85;20.20;;;20.60;99.90;;;;;;5049458;28;20025;-85
2023/09/13 02:56:30;;;;;;;36.40;28.88;;;20.60;99.90;;;;;;5049492;28;20079;-84
2023/09/13 02:58:56;;;;;;;46.92;34.88;;;20.60;99.90;;;;;;5069178;28;20025;-85
2023/09/13 03:01:22;;;;;;;45.20;35.95;;;20.60;99.90;;;;;;5056226;28;20021;-84
2023/09/13 03:03:49;;;;;;;39.80;33.17;;;20.60;99.90;;;;;;5056023;28;20102;-85
2023/09/13 03:06:15;;;;;;;62.80;41.30;;;20.60;99.90;;;;;;5055878;28;20445;-85
2023/09/13 03:08:41;;;;;;;47.25;36.83;;;20.60;99.90;;;;;;5049550;28;20057;-84
2023/09/13 03:11:11;;;;;;;40.97;35.20;;;20.60;99.90;;;;;;5049511;28;20456;-85
2023/09/13 03:13:38;;;;;;;45.90;35.00;;;20.60;99.90;;;;;;5036006;28;20025;-84
2023/09/13 03:16:20;;;;;;;59.42;40.78;;;20.50;99.90;;;;;;5049459;28;20272;-85
2023/09/13 03:18:49;;;;;;;54.05;40.22;;;20.50;99.90;;;;;;5049279;28;20037;-84
2023/09/13 03:21:17;;;;;;;47.45;35.50;;;20.50;99.90;;;;;;5064378;28;20031;-84
2023/09/13 03:23:45;;;;;;;54.53;40.15;;;20.50;99.90;;;;;;5068862;28;20013;-84
2023/09/13 03:26:24;;;;;;;51.55;38.28;;;20.40;99.90;;;;;;5068413;28;20023;-84
2023/09/13 03:28:52;;;;;;;59.17;42.22;;;20.40;99.90;;;;;;5069417;28;20020;-84
2023/09/13 03:31:20;;;;;;;58.92;39.80;;;20.40;99.90;;;;;;5063390;28;20096;-85
2023/09/13 03:33:47;;;;;;;44.97;35.13;;;20.30;99.90;;;;;;5061909;28;20048;-85
2023/09/13 03:36:14;;;;;;;57.50;36.95;;;20.30;99.90;;;;;;5066494;28;20028;-85
2023/09/13 03:38:42;;;;;;;56.38;36.90;;;20.30;99.90;;;;;;5051108;28;20045;-86
2023/09/13 03:41:11;;;;;;;41.80;34.05;;;20.30;99.90;;;;;;5066773;28;20020;-85
2023/09/13 03:43:37;;;;;;;37.42;32.35;;;20.30;99.90;;;;;;5068926;28;20020;-83
2023/09/13 03:46:05;;;;;;;39.80;32.28;;;20.40;99.90;;;;;;5049335;28;20075;-84
2023/09/13 03:48:31;;;;;;;59.33;38.53;;;20.40;99.90;;;;;;5049480;28;20033;-84
2023/09/13 03:50:57;;;;;;;53.33;38.55;;;20.40;99.90;;;;;;5049089;28;20115;-85
2023/09/13 03:53:24;;;;;;;49.63;36.88;;;20.40;99.90;;;;;;5061583;28;20473;-84
2023/09/13 03:55:50;;;;;;;41.40;33.72;;;20.40;99.90;;;;;;5068738;28;20041;-84
2023/09/13 03:58:15;;;;;;;48.42;36.13;;;20.50;99.90;;;;;;5067698;28;20032;-84
2023/09/13 04:00:41;;;;;;;46.28;33.45;;;20.50;99.90;;;;;;5055257;28;20417;-84
2023/09/13 04:03:07;;;;;;;44.95;34.80;;;20.60;99.90;;;;;;5048529;28;20033;-84
2023/09/13 04:05:33;;;;;;;56.97;38.53;;;20.60;99.90;;;;;;5049063;28;20017;-84
2023/09/13 04:07:58;;;;;;;50.03;38.00;;;20.60;99.90;;;;;;5049144;28;20039;-84
2023/09/13 04:10:24;;;;;;;66.38;43.17;;;20.60;99.90;;;;;;5056662;28;20029;-84
2023/09/13 04:12:50;;;;;;;43.35;34.13;;;20.70;99.90;;;;;;5055291;28;20033;-85
2023/09/13 04:15:16;;;;;;;59.40;42.40;;;20.70;99.90;;;;;;5048467;28;20017;-84
2023/09/13 04:17:41;;;;;;;58.55;39.45;;;20.70;99.90;;;;;;5049113;28;20029;-84
2023/09/13 04:20:09;;;;;;;65.18;44.92;;;20.70;99.90;;;;;;5047892;28;20021;-84
2023/09/13 04:22:35;;;;;;;71.45;45.60;;;20.70;99.90;;;;;;5050329;28;20025;-83
2023/09/13 04:25:00;;;;;;;60.17;40.97;;;20.70;99.90;;;;;;5052545;28;20052;-84
2023/09/13 04:27:26;;;;;;;62.70;43.78;;;20.70;99.90;;;;;;5052390;28;20052;-83
2023/09/13 04:29:56;;;;;;;62.63;42.92;;;20.70;99.90;;;;;;5052836;28;20032;-84
2023/09/13 04:32:23;;;;;;;64.60;47.38;;;20.70;99.90;;;;;;5052036;28;20274;-85
2023/09/13 04:34:50;;;;;;;65.32;41.75;;;20.70;99.90;;;;;;5051752;28;20090;-84
2023/09/13 04:37:15;;;;;;;66.10;47.92;;;20.70;99.90;;;;;;5051895;28;20107;-84
2023/09/13 04:39:41;;;;;;;75.07;50.30;;;20.60;99.90;;;;;;5057894;28;20473;-84
2023/09/13 04:42:07;;;;;;;67.28;46.63;;;20.60;99.90;;;;;;5065871;28;20381;-83
2023/09/13 04:44:32;;;;;;;78.00;48.85;;;20.60;99.90;;;;;;5072133;28;20035;-84
2023/09/13 04:46:59;;;;;;;74.50;50.28;;;20.60;99.90;;;;;;5071539;28;20095;-85
2023/09/13 04:49:25;;;;;;;64.65;46.00;;;20.50;99.90;;;;;;5052142;28;20489;-84
2023/09/13 04:51:52;;;;;;;67.50;45.10;;;20.40;99.90;;;;;;5051994;28;20105;-83
2023/09/13 04:54:18;;;;;;;62.17;46.63;;;20.40;99.90;;;;;;5068597;28;20017;-84
2023/09/13 04:56:43;;;;;;;64.00;45.33;;;20.40;99.90;;;;;;5064975;28;20069;-85
2023/09/13 04:59:09;;;;;;;64.15;45.90;;;20.40;99.90;;;;;;5060480;28;20096;-85
2023/09/13 05:01:35;;;;;;;60.00;45.33;;;20.30;99.90;;;;;;5064432;28;20025;-84
2023/09/13 05:04:00;;;;;;;59.22;45.33;;;20.30;99.90;;;;;;5060328;28;20096;-84
2023/09/13 05:06:26;;;;;;;65.72;45.08;;;20.20;99.90;;;;;;5057270;28;20075;-85
2023/09/13 05:08:52;;;;;;;63.42;45.30;;;20.20;99.90;;;;;;5061028;28;20021;-85
2023/09/13 05:11:19;;;;;;;57.78;41.45;;;20.20;99.90;;;;;;5064502;28;20021;-84
2023/09/13 05:13:47;;;;;;;55.38;39.47;;;20.20;99.90;;;;;;5061241;28;20036;-85
2023/09/13 05:16:19;;;;;;;58.58;42.00;;;20.20;99.90;;;;;;5057762;28;20057;-85
2023/09/13 05:18:48;;;;;;;55.45;39.60;;;20.20;99.90;;;;;;5071331;28;20033;-86
2023/09/13 05:21:14;;;;;;;62.67;42.97;;;20.10;99.90;;;;;;5059037;28;20075;-86
2023/09/13 05:23:40;;;;;;;67.28;44.72;;;20.10;99.90;;;;;;5071693;28;20032;-86
2023/09/13 05:26:06;;;;;;;62.30;42.13;;;20.10;99.90;;;;;;5070361;28;20024;-83
2023/09/13 05:28:33;;;;;;;66.10;44.17;;;20.20;99.90;;;;;;5062429;28;20021;-85
2023/09/13 05:31:02;;;;;;;64.97;45.55;;;20.10;99.90;;;;;;5066534;28;20474;-86
2023/09/13 05:33:28;;;;;;;68.80;45.65;;;20.20;99.90;;;;;;5069984;28;20024;-85
2023/09/13 05:35:54;;;;;;;60.75;42.60;;;20.20;99.90;;;;;;5068602;28;20093;-84
2023/09/13 05:38:20;;;;;;;53.05;39.53;;;20.20;99.90;;;;;;5085861;28;20035;-84
2023/09/13 05:40:46;;;;;;;66.65;45.03;;;20.20;99.90;;;;;;5070837;28;20028;-85
2023/09/13 05:43:12;;;;;;;61.95;44.85;;;20.20;99.90;;;;;;5070565;28;20470;-85
2023/09/13 05:45:37;;;;;;;52.85;38.13;;;20.20;99.90;;;;;;5060032;28;20370;-86
2023/09/13 05:48:03;;;;;;;58.67;41.97;;;20.20;99.90;;;;;;5069850;28;20027;-84
2023/09/13 05:50:29;;;;;;;55.17;41.80;;;20.30;99.90;;;;;;5068196;28;20382;-86
2023/09/13 05:52:55;;;;;;;64.28;45.08;;;20.30;99.90;;;;;;5045439;28;20041;-85
2023/09/13 05:55:21;;;;;;;58.83;43.20;;;20.30;99.90;;;;;;5047437;28;20396;-85
2023/09/13 05:57:46;;;;;;;66.95;45.97;;;20.30;99.90;;;;;;5049403;28;20052;-85
2023/09/13 06:00:14;;;;;;;59.10;40.22;;;20.30;99.90;;;;;;5050580;28;20044;-85
2023/09/13 06:02:39;;;;;;;63.33;42.88;;;20.30;99.90;;;;;;5050606;28;20033;-86
2023/09/13 06:05:06;;;;;;;58.35;40.80;;;20.30;99.90;;;;;;5049723;28;20024;-85
2023/09/13 06:07:32;;;;;;;64.43;43.58;;;20.30;99.90;;;;;;5050972;28;20513;-77
2023/09/13 06:10:00;;;;;;;65.93;42.00;;;20.30;99.90;;;;;;5052148;28;20025;-77
2023/09/13 06:12:25;;;;;;;55.03;41.53;;;20.30;99.90;;;;;;5066995;28;20021;-78
2023/09/13 06:14:53;;;;;;;57.47;42.17;;;20.40;99.90;;;;;;5051725;28;20025;-78
2023/09/13 06:17:19;;;;;;;68.55;44.05;;;20.30;99.90;;;;;;5049563;28;20029;-78
2023/09/13 06:19:45;;;;;;;61.72;43.15;;;20.30;99.90;;;;;;5049374;28;20116;-78
2023/09/13 06:22:10;;;;;;;57.90;40.40;;;20.30;99.90;;;;;;5050302;28;20425;-77
2023/09/13 06:24:36;;;;;;;62.25;43.10;;;20.40;99.90;;;;;;5049192;28;20009;-78
2023/09/13 06:27:01;;;;;;;61.95;42.63;;;20.40;99.90;;;;;;5050512;28;20025;-77
2023/09/13 06:29:27;;;;;;;61.28;40.40;;;20.40;99.90;;;;;;5049839;28;20850;-78
2023/09/13 06:31:54;;;;;;;56.30;41.50;;;20.50;99.90;;;;;;5066224;28;20132;-78
2023/09/13 06:34:20;;;;;;;47.88;38.15;;;20.50;99.90;;;;;;5051856;28;20021;-78
2023/09/13 06:36:48;;;;;;;54.88;40.10;;;20.50;99.90;;;;;;5051267;28;20032;-77
2023/09/13 06:39:14;;;;;;;59.22;40.33;;;20.50;99.90;;;;;;5051229;28;20017;-77
2023/09/13 06:41:40;;;;;;;51.38;38.60;;;20.40;99.90;;;;;;5049671;28;20021;-78
2023/09/13 06:44:09;;;;;;;55.72;37.88;;;20.40;99.90;;;;;;5049543;28;20021;-78
2023/09/13 06:46:38;;;;;;;58.08;39.28;;;20.40;99.90;;;;;;5050268;28;20021;-77
2023/09/13 06:49:04;;;;;;;54.70;39.58;;;20.40;99.90;;;;;;5050693;28;20017;-78
2023/09/13 06:51:30;;;;;;;46.83;37.78;;;20.40;99.90;;;;;;5048785;28;20155;-77
2023/09/13 06:53:55;;;;;;;54.28;38.72;;;20.40;99.90;;;;;;5048746;28;20040;-77
2023/09/13 06:56:21;;;;;;;52.33;36.05;;;20.40;99.90;;;;;;5049307;28;20204;-78
2023/09/13 06:58:47;;;;;;;50.83;35.83;;;20.50;99.90;;;;;;5050029;28;20536;-77
2023/09/13 07:01:13;;;;;;;41.58;30.83;;;20.50;99.90;;;;;;5064651;28;20017;-77
2023/09/13 07:03:39;;;;;;;16.92;14.95;;;20.50;99.90;;;;;;5050327;28;20091;-77
2023/09/13 07:06:04;;;;;;;10.25;7.95;;;20.40;99.90;;;;;;5049647;28;20463;-77
2023/09/13 07:08:30;;;;;;;7.30;4.80;;;20.20;99.90;;;;;;5049986;28;20079;-77
2023/09/13 07:10:56;;;;;;;3.30;0.80;;;20.00;99.90;;;;;;5047011;28;20024;-75
2023/09/13 07:13:21;;;;;;;1.00;0.50;;;19.60;99.90;;;;;;5053625;28;20025;-76
2023/09/13 07:15:47;;;;;;;1.52;0.50;;;19.40;99.90;;;;;;5059320;28;20023;-77
2023/09/13 07:18:13;;;;;;;0.68;0.30;;;19.10;99.90;;;;;;5054523;28;20036;-76
2023/09/13 07:20:39;;;;;;;1.02;0.30;;;18.80;99.90;;;;;;5052751;28;20029;-76
2023/09/13 07:23:04;;;;;;;0.95;0.55;;;18.60;99.90;;;;;;5055701;28;20104;-76
2023/09/13 07:25:30;;;;;;;1.13;0.30;;;18.50;99.90;;;;;;5058097;28;20480;-76
2023/09/13 07:27:55;;;;;;;1.90;0.60;;;18.40;99.90;;;;;;5054221;28;20477;-76
2023/09/13 07:30:21;;;;;;;0.65;0.38;;;18.30;99.90;;;;;;5056564;28;20441;-76
2023/09/13 07:32:49;;;;;;;0.85;0.20;;;18.30;99.90;;;;;;5056321;28;20020;-76
2023/09/13 07:35:15;;;;;;;0.85;0.40;;;18.30;99.90;;;;;;5057201;28;20044;-75
2023/09/13 07:37:41;;;;;;;0.85;0.40;;;18.20;99.90;;;;;;5056211;28;20025;-75
2023/09/13 07:40:08;;;;;;;0.93;0.35;;;18.20;99.90;;;;;;5054047;28;20424;-76
2023/09/13 07:42:33;;;;;;;1.70;0.43;;;18.30;99.90;;;;;;5056545;28;20378;-75
2023/09/13 07:44:59;;;;;;;1.13;0.50;;;18.40;99.90;;;;;;5062915;28;20027;-76
2023/09/13 07:47:27;;;;;;;1.00;0.40;;;18.50;99.90;;;;;;5059234;28;20420;-76
2023/09/13 07:49:53;;;;;;;1.70;0.50;;;18.50;99.90;;;;;;5057149;28;20363;-76
2023/09/13 07:52:18;;;;;;;1.70;0.45;;;18.60;99.90;;;;;;5050418;28;20039;-75
2023/09/13 07:54:44;;;;;;;1.20;0.57;;;18.50;99.90;;;;;;5060132;28;20032;-75
2023/09/13 07:57:10;;;;;;;0.68;0.30;;;18.50;99.90;;;;;;5057442;28;20068;-76
2023/09/13 07:59:36;;;;;;;1.33;0.40;;;18.50;99.90;;;;;;5054254;28;20055;-76
2023/09/13 08:02:01;;;;;;;1.17;0.55;;;18.50;99.90;;;;;;5056126;28;20021;-75
2023/09/13 08:04:27;;;;;;;2.58;0.50;;;18.40;99.90;;;;;;5052897;28;20845;-75
2023/09/13 08:06:52;;;;;;;0.95;0.40;;;18.40;99.90;;;;;;5057296;28;20032;-75
2023/09/13 08:09:18;;;;;;;1.35;0.40;;;18.40;99.90;;;;;;5068728;28;20621;-75
2023/09/13 08:11:46;;;;;;;1.27;0.55;;;18.40;99.90;;;;;;5064892;28;20021;-75
2023/09/13 08:14:12;;;;;;;1.20;0.40;;;18.40;99.90;;;;;;5059516;28;20039;-76
2023/09/13 08:16:38;;;;;;;1.10;0.50;;;18.50;99.90;;;;;;5051703;28;20478;-75
2023/09/13 08:19:03;;;;;;;0.93;0.40;;;18.50;99.90;;;;;;5051701;28;20017;-75
2023/09/13 08:21:29;;;;;;;1.10;0.50;;;18.60;99.90;;;;;;5062783;28;20547;-76
2023/09/13 08:23:54;;;;;;;0.82;0.40;;;18.50;99.90;;;;;;5068405;28;20037;-76
2023/09/13 08:26:20;;;;;;;1.90;0.52;;;18.60;99.90;;;;;;5061985;28;20059;-75
2023/09/13 08:28:46;;;;;;;1.13;0.57;;;18.60;99.90;;;;;;5084071;28;20591;-78
2023/09/13 08:31:11;;;;;;;1.85;0.57;;;18.60;99.90;;;;;;5062112;28;20044;-77
2023/09/13 08:33:37;;;;;;;1.83;0.70;;;18.60;99.90;;;;;;5066005;28;20039;-78
2023/09/13 08:36:03;;;;;;;1.13;0.50;;;18.70;99.90;;;;;;5057672;28;20089;-78
2023/09/13 08:38:28;;;;;;;1.42;0.60;;;18.70;99.90;;;;;;5065938;28;20036;-78
2023/09/13 08:40:54;;;;;;;1.02;0.50;;;18.80;99.90;;;;;;5065079;28;20036;-78
2023/09/13 08:43:21;;;;;;;1.27;0.50;;;18.90;99.90;;;;;;5066410;28;20102;-77
2023/09/13 08:45:49;;;;;;;1.67;0.60;;;18.90;99.90;;;;;;5057464;28;20017;-78
2023/09/13 08:48:16;;;;;;;1.02;0.60;;;18.90;99.90;;;;;;5055837;28;20772;-78
2023/09/13 08:50:42;;;;;;;1.35;0.73;;;18.90;99.90;;;;;;5057094;28;20035;-78
2023/09/13 08:53:10;;;;;;;2.65;1.10;;;18.90;99.90;;;;;;5058031;28;20940;-77
2023/09/13 08:55:37;;;;;;;3.10;0.80;;;18.90;99.90;;;;;;5061223;28;20569;-77
2023/09/13 08:58:03;;;;;;;3.30;0.82;;;18.90;99.90;;;;;;5066987;28;20055;-77
2023/09/13 09:00:33;;;;;;;1.70;0.90;;;18.90;99.90;;;;;;5062158;28;20029;-77
2023/09/13 09:03:01;;;;;;;1.80;0.57;;;18.90;99.90;;;;;;5066345;28;20025;-76
2023/09/13 09:05:29;;;;;;;4.15;0.75;;;18.90;99.90;;;;;;5062635;28;20021;-77
2023/09/13 09:07:56;;;;;;;1.77;0.60;;;18.90;99.90;;;;;;5067058;28;20017;-76
2023/09/13 09:10:23;;;;;;;2.95;0.93;;;18.90;99.90;;;;;;5056525;28;20699;-77
2023/09/13 09:12:52;;;;;;;1.50;0.73;;;19.00;99.90;;;;;;5067258;28;20023;-76
2023/09/13 09:15:19;;;;;;;1.23;0.57;;;19.00;99.90;;;;;;5060326;28;20017;-77
2023/09/13 09:17:48;;;;;;;2.78;0.60;;;19.10;99.90;;;;;;5064048;28;20024;-77
2023/09/13 09:20:14;;;;;;;3.22;0.60;;;19.00;99.90;;;;;;5056371;28;20025;-77
2023/09/13 09:22:41;;;;;;;3.40;0.57;;;18.90;99.90;;;;;;5063436;28;20078;-77
2023/09/13 09:25:11;;;;;;;1.80;0.50;;;18.90;99.90;;;;;;5052381;28;20013;-77
2023/09/13 09:27:39;;;;;;;2.45;0.77;;;18.90;99.90;;;;;;5055977;28;20029;-77
2023/09/13 09:30:07;;;;;;;2.72;1.00;;;19.00;99.90;;;;;;5053760;28;20033;-77
2023/09/13 09:32:35;;;;;;;1.60;0.52;;;19.00;99.90;;;;;;5053267;28;20506;-77
2023/09/13 09:35:04;;;;;;;3.00;0.75;;;19.10;99.90;;;;;;5053213;28;20032;-76
2023/09/13 09:37:31;;;;;;;1.85;0.57;;;19.20;99.90;;;;;;5053175;28;20482;-76
2023/09/13 09:39:57;;;;;;;2.90;0.98;;;19.20;99.90;;;;;;5050623;28;20032;-77
2023/09/13 09:42:23;;;;;;;3.90;0.52;;;19.20;99.90;;;;;;5058833;28;20501;-77
2023/09/13 09:44:49;;;;;;;2.17;0.90;;;19.30;99.90;;;;;;5053024;28;20028;-76
2023/09/13 09:47:15;;;;;;;6.28;0.85;;;19.40;99.80;;;;;;5079457;28;20134;-76
2023/09/13 09:49:46;;;;;;;1.20;0.45;;;19.60;99.60;;;;;;5050773;28;20459;-76
2023/09/13 09:52:12;;;;;;;1.30;0.68;;;19.70;99.70;;;;;;5066925;28;20048;-77
2023/09/13 09:54:38;;;;;;;1.63;0.95;;;19.80;99.70;;;;;;5064806;28;20479;-77
2023/09/13 09:57:04;;;;;;;1.85;0.77;;;19.90;99.30;;;;;;5067192;28;20092;-76
2023/09/13 09:59:30;;;;;;;4.18;0.90;;;20.10;99.10;;;;;;5069676;28;20032;-76
2023/09/13 10:02:00;;;;;;;1.95;0.82;;;20.20;99.00;;;;;;5063332;28;20021;-75
2023/09/13 10:04:29;;;;;;;1.63;0.50;;;20.30;98.60;;;;;;5058991;28;20017;-76
2023/09/13 10:06:57;;;;;;;2.13;0.68;;;20.40;98.50;;;;;;5056768;28;20097;-76
2023/09/13 10:09:22;;;;;;;4.65;0.95;;;20.40;98.40;;;;;;5064544;28;20491;-75
2023/09/13 10:11:56;;;;;;;3.70;0.68;;;20.50;98.20;;;;;;5058720;28;20025;-75
2023/09/13 10:14:26;;;;;;;3.28;1.10;;;20.70;98.10;;;;;;5064530;28;20414;-74
2023/09/13 10:16:54;;;;;;;2.83;0.80;;;20.80;98.00;;;;;;5049930;28;20071;-75
2023/09/13 10:19:27;;;;;;;2.88;1.10;;;20.80;97.30;;;;;;5071586;28;20024;-74
2023/09/13 10:21:54;;;;;;;2.35;0.90;;;20.70;96.80;;;;;;5056157;28;20024;-74
2023/09/13 10:24:22;;;;;;;2.22;0.80;;;20.60;96.70;;;;;;5064906;28;20070;-74
2023/09/13 10:26:52;;;;;;;1.85;0.50;;;20.40;96.60;;;;;;5053827;28;20478;-74
2023/09/13 10:29:45;;;;;;;2.70;0.95;;;20.30;96.50;;;;;;5071462;28;20028;-74
2023/09/13 10:32:14;;;;;;;4.63;0.93;;;20.20;96.70;;;;;;5051933;28;20036;-74
2023/09/13 10:34:50;;;;;;;2.22;1.30;;;20.30;96.90;;;;;;5055899;28;20025;-74
2023/09/13 10:37:32;;;;;;;2.47;1.13;;;20.40;96.70;;;;;;5049008;28;20100;-74
2023/09/13 10:40:10;;;;;;;1.67;0.73;;;20.40;96.20;;;;;;5046875;28;20478;-74
2023/09/13 10:42:40;;;;;;;2.83;1.25;;;20.30;96.20;;;;;;5057339;28;20021;-74
2023/09/13 10:45:07;;;;;;;3.33;0.80;;;20.30;96.20;;;;;;5057445;28;20024;-74
2023/09/13 10:47:37;;;;;;;3.95;0.85;;;20.30;96.00;;;;;;5047472;28;20039;-74
2023/09/13 10:50:03;;;;;;;2.17;1.05;;;20.30;95.60;;;;;;5050498;28;20013;-74
2023/09/13 10:52:31;;;;;;;3.47;1.38;;;20.30;95.70;;;;;;5062027;28;20132;-74
2023/09/13 10:54:58;;;;;;;3.60;1.17;;;20.40;96.00;;;;;;5061115;28;20526;-74
2023/09/13 10:57:25;;;;;;;4.38;1.45;;;20.50;96.00;;;;;;5051803;28;20045;-76
2023/09/13 10:59:52;;;;;;;3.60;1.40;;;20.60;95.90;;;;;;5050155;28;20021;-75
2023/09/13 11:02:21;;;;;;;3.35;1.38;;;20.60;95.60;;;;;;5049109;28;20028;-75
2023/09/13 11:04:47;;;;;;;2.03;1.05;;;20.60;95.30;;;;;;5049783;28;20103;-75
2023/09/13 11:07:16;;;;;;;3.13;1.33;;;20.70;95.40;;;;;;5051918;28;20025;-75
2023/09/13 11:09:43;;;;;;;6.18;1.90;;;20.70;95.30;;;;;;5051374;28;20044;-74
2023/09/13 11:12:12;;;;;;;3.95;1.83;;;20.70;95.20;;;;;;5050803;28;20025;-75
2023/09/13 11:14:42;;;;;;;3.90;1.38;;;20.80;95.10;;;;;;5050684;28;20063;-75
2023/09/13 11:17:38;;;;;;;3.47;1.58;;;20.70;94.90;;;;;;5057883;28;20054;-75
2023/09/13 11:20:24;;;;;;;2.63;1.15;;;20.70;95.20;;;;;;5048694;28;20092;-75
2023/09/13 11:23:18;;;;;;;3.28;1.60;;;20.80;94.90;;;;;;5049364;28;20551;-75
2023/09/13 11:25:52;;;;;;;;;;;20.90;94.90;;;;;;5048764;28;20024;-75
2023/09/13 11:28:38;;;;;;;3.08;1.00;;;20.90;94.50;;;;;;5036192;28;19926;-75
2023/09/13 11:31:09;;;;;;;4.65;1.65;;;20.80;94.40;;;;;;5052438;28;20028;-75
2023/09/13 11:33:47;;;;;;;3.25;1.45;;;20.90;94.30;;;;;;5068696;28;20024;-75
2023/09/13 11:36:17;;;;;;;2.17;1.02;;;20.90;94.40;;;;;;5067465;28;20021;-75
2023/09/13 11:38:43;;;;;;;4.57;0.75;;;21.00;94.10;;;;;;5068648;28;20036;-75
2023/09/13 11:41:14;;;;;;;3.17;0.85;;;21.00;94.10;;;;;;5067531;28;20444;-76
2023/09/13 11:43:41;;;;;;;2.28;1.00;;;21.10;94.00;;;;;;5068277;28;20095;-75
2023/09/13 11:46:08;;;;;;;4.32;1.10;;;21.10;94.00;;;;;;5059276;28;20099;-76
2023/09/13 11:48:40;;;;;;;2.15;0.88;;;21.20;94.10;;;;;;5067730;28;20027;-75
2023/09/13 11:51:13;;;;;;;3.20;0.80;;;21.30;94.10;;;;;;5043962;28;20032;-75
2023/09/13 11:53:40;;;;;;;4.55;0.80;;;21.30;93.80;;;;;;5067031;28;20460;-75
2023/09/13 11:56:07;;;;;;;3.78;1.02;;;21.40;93.80;;;;;;5068056;28;20053;-74
2023/09/13 11:58:36;;;;;;;3.88;1.15;;;21.40;93.50;;;;;;5065975;28;20152;-76
2023/09/13 12:01:06;;;;;;;3.47;1.10;;;21.40;93.40;;;;;;5048721;28;20067;-76
2023/09/13 12:03:35;;;;;;;3.15;1.05;;;21.40;93.40;;;;;;5049996;28;20025;-76
2023/09/13 12:06:02;;;;;;;3.45;0.90;;;21.50;93.90;;;;;;5056275;28;20122;-75
2023/09/13 12:08:29;;;;;;;3.50;0.85;;;21.50;93.60;;;;;;5061386;28;20028;-76
2023/09/13 12:10:56;;;;;;;2.80;1.20;;;21.60;93.60;;;;;;5063423;28;20100;-75
2023/09/13 12:13:59;;;;;;;2.42;1.17;;;21.50;93.70;;;;;;5075030;28;20489;-75
2023/09/13 12:16:25;;;;;;;2.70;0.80;;;21.40;93.60;;;;;;5049494;28;21686;-75
2023/09/13 12:18:50;;;;;;;3.33;0.70;;;21.30;93.70;;;;;;5050850;28;20035;-76
2023/09/13 12:21:17;;;;;;;2.42;0.80;;;21.20;93.90;;;;;;5048170;28;20017;-75
2023/09/13 12:23:46;;;;;;;1.90;0.75;;;21.10;94.20;;;;;;5042330;28;20464;-75
2023/09/13 12:26:15;;;;;;;3.00;0.90;;;21.20;94.10;;;;;;5067683;28;20086;-75
2023/09/13 12:28:41;;;;;;;1.77;0.73;;;21.30;94.10;;;;;;5076105;28;20173;-75
2023/09/13 12:31:12;;;;;;;5.10;1.38;;;21.40;93.80;;;;;;5048081;28;20037;-75
2023/09/13 12:33:40;;;;;;;5.47;0.82;;;21.40;93.70;;;;;;5047262;28;20029;-75
2023/09/13 12:36:06;;;;;;;8.50;2.05;;;21.20;93.90;;;;;;5048556;28;20463;-75
2023/09/13 12:38:41;;;;;;;3.90;1.33;;;21.00;94.40;;;;;;5049010;28;20083;-75